Time;durP1;ratioP1;P1;durP2;ratioP2;P2;SDS_P1;SDS_P2;PMS_P1;PMS_P2;Temp;Humidity;BMP_temperature;BMP_pressure;BME280_temperature;BME280_humidity;BME280_pressure;Samples;Min_cycle;Max_cycle;Signal;HPM_P1;HPM_P2
2023/01/03 00:01:57;;;;;;;;;;;;;;;9.11;91.98;101058.41;4890968;29;19923;-81
2023/01/03 00:04:23;;;;;;;;;;;;;;;9.17;91.51;101052.72;4903056;29;25027;-83
2023/01/03 00:06:51;;;;;;;;;;;;;;;9.15;91.15;101067.00;4910474;29;20263;-82
2023/01/03 00:09:18;;;;;;;;;;;;;;;9.07;91.29;101067.50;4901677;29;20019;-82
2023/01/03 00:14:32;;;;;;;;;;;;;;;8.95;90.83;101071.75;4890652;29;19923;-81
2023/01/03 00:16:59;;;;;;;;;;;;;;;8.97;90.59;101077.81;4897765;29;19931;-81
2023/01/03 00:19:28;;;;;;;;;;;;;;;8.96;90.58;101073.47;4889413;29;19931;-82
2023/01/03 00:21:54;;;;;;;;;;;;;;;8.94;90.47;101071.84;4879869;29;19927;-82
2023/01/03 00:24:21;;;;;;;;;;;;;;;8.91;90.73;101067.59;4909312;29;19922;-82
2023/01/03 00:26:47;;;;;;;;;;;;;;;8.90;90.52;101068.53;4865838;29;20045;-83
2023/01/03 00:29:14;;;;;;;;;;;;;;;8.85;90.36;101075.91;4897144;29;19923;-82
2023/01/03 00:31:41;;;;;;;;;;;;;;;8.84;90.59;101075.06;4902900;29;19979;-82
2023/01/03 00:34:08;;;;;;;;;;;;;;;8.82;90.12;101076.94;4878492;29;19931;-84
2023/01/03 00:36:34;;;;;;;;;;;;;;;8.76;90.44;101069.38;4900417;29;19923;-82
2023/01/03 00:39:01;;;;;;;;;;;;;;;8.76;90.18;101072.03;4875705;29;19923;-82
2023/01/03 00:41:29;;;;;;;;;;;;;;;8.72;90.25;101075.81;4893288;29;20002;-82
2023/01/03 00:43:55;;;;;;;;;;;;;;;8.69;90.18;101078.66;4877860;29;20275;-82
2023/01/03 00:46:22;;;;;;;;;;;;;;;8.68;90.62;101082.25;4902507;29;19923;-82
2023/01/03 00:48:49;;;;;;;;;;;;;;;8.68;90.34;101082.25;4891671;29;20411;-85
2023/01/03 00:51:20;;;;;;;;;;;;;;;8.64;90.46;101076.28;4901209;29;19930;-81
2023/01/03 00:53:48;;;;;;;;;;;;;;;8.69;90.58;101083.94;4884659;29;19927;-82
2023/01/03 00:56:15;;;;;;;;;;;;;;;8.68;90.49;101090.19;4863532;29;19946;-82
2023/01/03 00:58:42;;;;;;;;;;;;;;;8.68;90.42;101088.41;4888956;29;19923;-82
2023/01/03 01:01:10;;;;;;;;;;;;;;;8.75;90.84;101094.19;4888143;29;20260;-81
2023/01/03 01:03:37;;;;;;;;;;;;;;;8.71;90.87;101095.31;4889891;29;20429;-82
2023/01/03 01:06:14;;;;;;;;;;;;;;;8.71;91.00;101097.09;4902240;29;20375;-82
2023/01/03 01:08:41;;;;;;;;;;;;;;;8.73;90.85;101101.38;4879272;29;19923;-82
2023/01/03 01:11:08;;;;;;;;;;;;;;;8.85;90.68;101097.09;4891432;29;19927;-82
2023/01/03 01:13:35;;;;;;;;;;;;;;;8.83;90.80;101099.00;4904360;29;19954;-82
2023/01/03 01:16:06;;;;;;;;;;;;;;;8.81;90.81;101100.91;4893490;29;19923;-82
2023/01/03 01:18:32;;;;;;;;;;;;;;;8.84;90.60;101108.66;4871298;29;19974;-82
2023/01/03 01:20:59;;;;;;;;;;;;;;;8.81;90.77;101114.97;4883779;29;20375;-82
2023/01/03 01:23:26;;;;;;;;;;;;;;;8.81;90.63;101120.28;4903129;29;19976;-82
2023/01/03 01:25:52;;;;;;;;;;;;;;;8.79;90.70;101114.22;4888996;29;19925;-82
2023/01/03 01:28:19;;;;;;;;;;;;;;;8.77;90.81;101108.16;4898571;29;19923;-82
2023/01/03 01:30:45;;;;;;;;;;;;;;;8.80;90.72;101107.13;4891903;29;19942;-83
2023/01/03 01:33:12;;;;;;;;;;;;;;;8.75;90.49;101103.91;4902804;29;19991;-82
2023/01/03 01:35:39;;;;;;;;;;;;;;;8.66;90.46;101118.56;4901116;29;19930;-82
2023/01/03 01:38:05;;;;;;;;;;;;;;;8.67;90.17;101113.16;4915061;29;19931;-82
2023/01/03 01:40:32;;;;;;;;;;;;;;;8.63;90.19;101118.75;4880740;29;19946;-82
2023/01/03 01:45:49;;;;;;;;;;;;;;;8.65;89.63;101112.41;4837482;29;19931;-82
2023/01/03 01:48:16;;;;;;;;;;;;;;;8.55;89.60;101118.31;4845987;29;19988;-82
2023/01/03 01:50:48;;;;;;;;;;;;;;;8.52;89.50;101124.66;4849757;29;20368;-82
2023/01/03 01:53:22;;;;;;;;;;;;;;;8.53;89.25;101121.09;4815945;29;19923;-82
2023/01/03 01:55:53;;;;;;;;;;;;;;;8.49;89.52;101135.44;4850562;29;19936;-84
2023/01/03 01:58:20;;;;;;;;;;;;;;;8.44;89.40;101132.19;4847843;29;19928;-82
2023/01/03 02:00:46;;;;;;;;;;;;;;;8.39;89.14;101135.13;4867040;29;19924;-82
2023/01/03 02:03:13;;;;;;;;;;;;;;;8.42;89.05;101132.31;4864811;29;19924;-82
2023/01/03 02:05:45;;;;;;;;;;;;;;;8.41;89.06;101133.25;4836307;29;19932;-82
2023/01/03 02:08:11;;;;;;;;;;;;;;;8.47;88.84;101135.53;4835649;29;19924;-82
2023/01/03 02:10:55;;;;;;;;;;;;;;;8.43;88.89;101125.22;4862184;29;19963;-83
2023/01/03 02:13:21;;;;;;;;;;;;;;;8.36;88.87;101129.13;4823496;29;20436;-83
2023/01/03 02:15:57;;;;;;;;;;;;;;;8.41;88.50;101135.03;4842994;29;20482;-82
2023/01/03 02:18:24;;;;;;;;;;;;;;;8.37;88.54;101133.47;4879164;29;20005;-82
2023/01/03 02:21:10;;;;;;;;;;;;;;;8.37;88.84;101136.13;4915824;29;20022;-82
2023/01/03 02:23:46;;;;;;;;;;;;;;;8.37;88.77;101136.13;4859747;29;20065;-83
2023/01/03 02:26:19;;;;;;;;;;;;;;;8.33;89.20;101145.19;4915220;29;20197;-83
2023/01/03 02:29:01;;;;;;;;;;;;;;;8.33;89.22;101140.75;4888377;29;19923;-83
2023/01/03 02:31:46;;;;;;;;;;;;;;;8.38;89.33;101138.69;4859559;29;20017;-82
2023/01/03 02:34:13;;;;;;;;;;;;;;;8.45;89.24;101140.06;4848874;29;19935;-86
2023/01/03 02:36:46;;;;;;;;;;;;;;;8.47;89.42;101137.31;4875310;29;19927;-82
2023/01/03 02:39:12;;;;;;;;;;;;;;;8.52;89.11;101129.94;4841254;29;19923;-82
2023/01/03 02:41:46;;;;;;;;;;;;;;;8.44;89.49;101140.16;4871343;29;19923;-82
2023/01/03 02:44:12;;;;;;;;;;;;;;;8.35;89.38;101135.38;4865072;29;19934;-82
2023/01/03 02:46:41;;;;;;;;;;;;;;;8.31;89.18;101142.63;4880386;29;19930;-82
2023/01/03 02:49:12;;;;;;;;;;;;;;;8.27;89.22;101134.03;4853408;29;20451;-82
2023/01/03 02:51:49;;;;;;;;;;;;;;;8.27;89.26;101135.81;4850899;29;20028;-82
2023/01/03 02:54:17;;;;;;;;;;;;;;;8.18;89.34;101129.25;4841249;29;19932;-84
2023/01/03 02:56:47;;;;;;;;;;;;;;;8.18;89.66;101125.75;4840639;29;19931;-82
2023/01/03 02:59:14;;;;;;;;;;;;;;;8.13;89.03;101130.47;4831389;29;19927;-82
2023/01/03 03:01:43;;;;;;;;;;;;;;;8.11;88.52;101140.28;4856353;29;20364;-82
2023/01/03 03:04:11;;;;;;;;;;;;;;;8.08;88.88;101140.47;4856067;29;20338;-82
2023/01/03 03:06:42;;;;;;;;;;;;;;;8.11;88.60;101140.28;4874225;29;19931;-86
2023/01/03 03:09:08;;;;;;;;;;;;;;;8.14;88.62;101145.38;4887221;29;19931;-82
2023/01/03 03:14:28;;;;;;;;;;;;;;;8.00;88.65;101144.38;4865013;29;19966;-83
2023/01/03 03:16:55;;;;;;;;;;;;;;;7.97;88.08;101141.06;4886404;29;19927;-82
2023/01/03 03:24:54;;;;;;;;;;;;;;;7.90;88.55;101160.88;4889324;29;19945;-82
2023/01/03 03:30:08;;;;;;;;;;;;;;;7.83;88.26;101152.41;4869009;29;20006;-82
2023/01/03 03:32:35;;;;;;;;;;;;;;;7.92;88.13;101141.34;4904380;29;19923;-82
2023/01/03 03:35:02;;;;;;;;;;;;;;;7.92;89.98;101145.78;4903465;29;19939;-83
2023/01/03 03:37:29;;;;;;;;;;;;;;;7.86;89.51;101154.91;4864044;29;19923;-82
2023/01/03 03:45:37;;;;;;;;;;;;;;;7.58;88.11;101153.78;4847531;29;19923;-82
2023/01/03 03:48:10;;;;;;;;;;;;;;;7.73;88.03;101152.06;4879389;29;20401;-81
2023/01/03 03:50:42;;;;;;;;;;;;;;;7.70;88.45;101154.03;4888914;29;19974;-82
2023/01/03 03:53:09;;;;;;;;;;;;;;;7.67;88.80;101157.72;4883458;29;19927;-81
2023/01/03 03:55:41;;;;;;;;;;;;;;;7.68;88.97;101163.84;4872498;29;19923;-82
2023/01/03 03:58:13;;;;;;;;;;;;;;;7.63;88.59;101166.72;4903110;29;20397;-81
2023/01/03 04:00:39;;;;;;;;;;;;;;;7.59;88.40;101167.84;4899091;29;19957;-82
2023/01/03 04:03:06;;;;;;;;;;;;;;;7.54;88.41;101170.75;4900342;29;19923;-82
2023/01/03 04:05:35;;;;;;;;;;;;;;;7.50;87.87;101177.13;4886175;29;20042;-82
2023/01/03 04:08:01;;;;;;;;;;;;;;;7.46;88.63;101180.88;4897571;29;19928;-82
2023/01/03 04:10:28;;;;;;;;;;;;;;;7.47;88.54;101169.38;4899017;29;20013;-82
2023/01/03 04:13:03;;;;;;;;;;;;;;;7.48;88.39;101176.38;4902357;29;19974;-81
2023/01/03 04:15:29;;;;;;;;;;;;;;;7.42;88.08;101173.19;4890211;29;19978;-82
2023/01/03 04:17:56;;;;;;;;;;;;;;;7.39;88.77;101177.72;4875399;29;25496;-83
2023/01/03 04:20:23;;;;;;;;;;;;;;;7.41;87.95;101179.44;4915016;29;19978;-82
2023/01/03 04:22:49;;;;;;;;;;;;;;;7.37;87.26;101184.00;4909403;29;19982;-82
2023/01/03 04:25:16;;;;;;;;;;;;;;;7.35;87.35;101185.88;4859140;29;19927;-82
2023/01/03 04:27:43;;;;;;;;;;;;;;;7.32;87.47;101180.75;4870047;29;19927;-81
2023/01/03 04:30:10;;;;;;;;;;;;;;;7.32;87.17;101178.13;4871763;29;19939;-82
2023/01/03 04:32:37;;;;;;;;;;;;;;;7.29;87.20;101176.50;4902193;29;19930;-82
2023/01/03 04:35:04;;;;;;;;;;;;;;;7.27;87.38;101175.72;4903544;29;19930;-82
2023/01/03 04:37:30;;;;;;;;;;;;;;;7.24;86.64;101180.31;4892942;29;19929;-82
2023/01/03 04:39:57;;;;;;;;;;;;;;;7.15;86.34;101184.31;4918595;29;19927;-82
2023/01/03 04:45:09;;;;;;;;;;;;;;;7.02;85.82;101197.31;4863946;29;19927;-82
2023/01/03 04:47:36;;;;;;;;;;;;;;;7.14;86.22;101190.50;4858229;29;19924;-82
2023/01/03 04:50:02;;;;;;;;;;;;;;;7.09;87.40;101192.53;4864030;29;19967;-82
2023/01/03 04:52:29;;;;;;;;;;;;;;;7.04;87.69;101195.41;4856907;29;20382;-82
2023/01/03 04:54:56;;;;;;;;;;;;;;;7.00;85.95;101201.81;4849962;29;19928;-82
2023/01/03 04:57:22;;;;;;;;;;;;;;;6.97;85.86;101199.31;4873555;29;19983;-84
2023/01/03 04:59:49;;;;;;;;;;;;;;;6.99;86.04;101199.22;4831825;29;19924;-82
2023/01/03 05:02:16;;;;;;;;;;;;;;;6.95;86.02;101195.91;4856725;29;20277;-83
2023/01/03 05:04:42;;;;;;;;;;;;;;;6.88;86.42;101197.16;4872472;29;20018;-83
2023/01/03 05:07:09;;;;;;;;;;;;;;;6.87;86.76;101192.78;4841625;29;19923;-83
2023/01/03 05:09:36;;;;;;;;;;;;;;;6.89;86.26;101194.41;4857026;29;20487;-83
2023/01/03 05:12:03;;;;;;;;;;;;;;;6.86;85.87;101185.81;4873742;29;20384;-82
2023/01/03 05:14:29;;;;;;;;;;;;;;;6.84;85.78;101193.78;4858236;29;20022;-83
2023/01/03 05:16:56;;;;;;;;;;;;;;;6.87;85.85;101195.44;4862409;29;20095;-83
2023/01/03 05:19:22;;;;;;;;;;;;;;;6.76;85.99;101193.34;4900001;29;20007;-82
2023/01/03 05:27:20;;;;;;;;;;;;;;;6.65;85.64;101195.69;4861803;29;19983;-82
2023/01/03 05:29:48;;;;;;;;;;;;;;;6.69;85.64;101202.50;4871060;29;19923;-83
2023/01/03 05:32:14;;;;;;;;;;;;;;;6.70;85.77;101197.16;4890081;29;19930;-83
2023/01/03 05:34:41;;;;;;;;;;;;;;;6.79;86.65;101202.88;4889798;29;19978;-83
2023/01/03 05:37:08;;;;;;;;;;;;;;;6.75;86.66;101204.84;4918448;29;20287;-83
2023/01/03 05:39:34;;;;;;;;;;;;;;;6.70;85.66;101201.59;4896901;29;20362;-83
2023/01/03 05:42:01;;;;;;;;;;;;;;;6.63;85.26;101205.47;4916716;29;19951;-83
2023/01/03 05:44:30;;;;;;;;;;;;;;;6.64;85.55;101207.16;4893390;29;19923;-83
2023/01/03 05:46:57;;;;;;;;;;;;;;;6.61;85.91;101215.22;4883103;29;20010;-83
2023/01/03 05:49:24;;;;;;;;;;;;;;;6.58;85.07;101216.25;4897459;29;19961;-83
2023/01/03 05:51:50;;;;;;;;;;;;;;;6.51;86.00;101222.75;4883235;29;20504;-82
2023/01/03 05:54:18;;;;;;;;;;;;;;;6.59;85.72;101222.38;4900398;29;19973;-82
2023/01/03 05:56:44;;;;;;;;;;;;;;;6.52;86.09;101225.31;4889947;29;19927;-82
2023/01/03 05:59:11;;;;;;;;;;;;;;;6.52;86.29;101221.84;4915752;29;20504;-83
2023/01/03 06:01:38;;;;;;;;;;;;;;;6.48;85.84;101218.47;4876574;29;19927;-82
2023/01/03 06:04:05;;;;;;;;;;;;;;;6.49;85.90;101227.25;4867900;29;20038;-82
2023/01/03 06:06:31;;;;;;;;;;;;;;;6.49;86.34;101225.47;4887319;29;19999;-82
2023/01/03 06:08:58;;;;;;;;;;;;;;;6.42;85.20;101226.69;4897716;29;19965;-82
2023/01/03 06:11:25;;;;;;;;;;;;;;;6.36;85.04;101223.50;4886132;29;19927;-82
2023/01/03 06:13:52;;;;;;;;;;;;;;;6.29;84.87;101229.09;4903676;29;19931;-85
2023/01/03 06:19:04;;;;;;;;;;;;;;;6.25;84.62;101235.41;4892280;29;19924;-83
2023/01/03 06:21:30;;;;;;;;;;;;;;;6.24;85.19;101228.44;4890398;29;19930;-82
2023/01/03 06:23:57;;;;;;;;;;;;;;;6.18;84.47;101234.03;4909367;29;20378;-82
2023/01/03 06:26:24;;;;;;;;;;;;;;;6.20;85.41;101239.22;4907097;29;20387;-83
2023/01/03 06:28:51;;;;;;;;;;;;;;;6.22;85.39;101243.50;4878374;29;20298;-83
2023/01/03 06:31:18;;;;;;;;;;;;;;;6.18;84.72;101239.31;4897818;29;19924;-82
2023/01/03 06:33:45;;;;;;;;;;;;;;;6.19;84.52;101243.63;4869700;29;20021;-83
2023/01/03 06:36:13;;;;;;;;;;;;;;;6.16;85.32;101248.22;4867725;29;19927;-82
2023/01/03 06:38:40;;;;;;;;;;;;;;;6.31;85.76;101250.13;4893488;29;19927;-83
2023/01/03 06:41:06;;;;;;;;;;;;;;;6.31;86.00;101242.22;4905319;29;19930;-82
2023/01/03 06:43:33;;;;;;;;;;;;;;;6.28;86.61;101245.84;4902682;29;20346;-81
2023/01/03 06:54:21;;;;;;;;;;;;;;;6.27;86.90;101248.56;4908263;29;19927;-81
2023/01/03 06:56:48;;;;;;;;;;;;;;;6.27;87.30;101251.19;4907114;29;19938;-81
2023/01/03 06:59:14;;;;;;;;;;;;;;;6.29;87.37;101251.97;4890349;29;20336;-81
2023/01/03 07:01:41;;;;;;;;;;;;;;;6.27;87.51;101256.47;4877632;29;19923;-82
2023/01/03 07:04:08;;;;;;;;;;;;;;;6.26;86.61;101258.25;4890855;29;19931;-82
2023/01/03 07:06:35;;;;;;;;;;;;;;;6.26;87.07;101255.63;4899843;29;19923;-81
2023/01/03 07:09:01;;;;;;;;;;;;;;;6.20;87.64;101258.53;4887852;29;19923;-81
2023/01/03 07:11:28;;;;;;;;;;;;;;;6.20;86.47;101257.69;4903834;29;19930;-81
2023/01/03 07:13:57;;;;;;;;;;;;;;;6.13;85.37;101259.78;4889667;29;19939;-82
2023/01/03 07:16:28;;;;;;;;;;;;;;;6.13;85.64;101262.41;4907662;29;19923;-81
2023/01/03 07:18:55;;;;;;;;;;;;;;;6.13;85.48;101266.81;4901057;29;20315;-81
2023/01/03 07:21:22;;;;;;;;;;;;;;;6.18;85.91;101270.06;4878204;29;19931;-82
2023/01/03 07:23:49;;;;;;;;;;;;;;;6.11;86.00;101279.19;4919230;29;19928;-81
2023/01/03 07:26:15;;;;;;;;;;;;;;;6.07;86.33;101279.34;4921356;29;19975;-81
2023/01/03 07:28:42;;;;;;;;;;;;;;;6.08;87.06;101280.19;4892971;29;19927;-81
2023/01/03 07:31:08;;;;;;;;;;;;;;;6.06;86.43;101287.34;4901637;29;19923;-81
2023/01/03 07:33:37;;;;;;;;;;;;;;;6.15;85.87;101291.31;4915028;29;19988;-81
2023/01/03 07:36:05;;;;;;;;;;;;;;;6.11;86.01;101287.09;4890091;29;19930;-81
2023/01/03 07:38:37;;;;;;;;;;;;;;;6.12;86.23;101291.47;4897559;29;19923;-82
2023/01/03 07:41:04;;;;;;;;;;;;;;;6.05;87.04;101291.75;4900862;29;19923;-82
2023/01/03 07:43:37;;;;;;;;;;;;;;;6.09;86.60;101292.47;4903330;29;19927;-81
2023/01/03 07:46:04;;;;;;;;;;;;;;;6.12;86.63;101294.13;4907741;29;19931;-82
2023/01/03 07:48:30;;;;;;;;;;;;;;;6.17;87.03;101300.03;4908615;29;19923;-81
2023/01/03 07:50:57;;;;;;;;;;;;;;;6.14;87.63;101301.03;4919855;29;19939;-81
2023/01/03 07:53:24;;;;;;;;;;;;;;;6.16;88.10;101306.25;4880632;29;19982;-82
2023/01/03 07:55:50;;;;;;;;;;;;;;;6.12;88.86;101313.44;4882301;29;19926;-81
2023/01/03 07:58:17;;;;;;;;;;;;;;;6.18;88.73;101314.91;4898506;29;20435;-81
2023/01/03 08:00:43;;;;;;;;;;;;;;;6.17;89.90;101310.56;4878876;29;19922;-81
2023/01/03 08:03:10;;;;;;;;;;;;;;;6.19;90.52;101327.19;4884590;29;19931;-81
2023/01/03 08:05:37;;;;;;;;;;;;;;;6.19;90.80;101328.03;4917649;29;19923;-81
2023/01/03 08:08:04;;;;;;;;;;;;;;;6.17;91.64;101321.97;4908184;29;20010;-81
2023/01/03 08:13:16;;;;;;;;;;;;;;;6.20;91.90;101323.63;4893695;29;19923;-81
2023/01/03 08:15:44;;;;;;;;;;;;;;;6.16;92.74;101330.81;4879201;29;19975;-81
2023/01/03 08:18:11;;;;;;;;;;;;;;;6.26;92.72;101332.13;4878362;29;20028;-82
2023/01/03 08:20:37;;;;;;;;;;;;;;;6.23;93.47;101331.38;4871320;29;19986;-81
2023/01/03 08:23:04;;;;;;;;;;;;;;;6.19;93.62;101335.97;4919916;29;19975;-81
2023/01/03 08:25:30;;;;;;;;;;;;;;;6.23;94.56;101344.56;4909012;29;19927;-81
2023/01/03 08:27:57;;;;;;;;;;;;;;;6.22;95.65;101348.16;4921148;29;19925;-81
2023/01/03 08:30:23;;;;;;;;;;;;;;;6.27;94.52;101352.28;4877996;29;19924;-81
2023/01/03 08:32:51;;;;;;;;;;;;;;;6.24;95.25;101356.84;4908891;29;20576;-81
2023/01/03 08:35:17;;;;;;;;;;;;;;;6.27;94.06;101359.34;4879055;29;19923;-82
2023/01/03 08:37:44;;;;;;;;;;;;;;;6.26;92.81;101361.13;4897097;29;19979;-81
2023/01/03 08:40:10;;;;;;;;;;;;;;;6.30;92.83;101364.47;4890187;29;19930;-82
2023/01/03 08:42:37;;;;;;;;;;;;;;;6.26;93.15;101353.22;4886813;29;20394;-79
2023/01/03 08:45:05;;;;;;;;;;;;;;;6.27;92.14;101361.97;4898718;29;20294;-79
2023/01/03 08:47:31;;;;;;;;;;;;;;;6.26;91.76;101361.13;4902533;29;20294;-80
2023/01/03 08:49:58;;;;;;;;;;;;;;;6.27;92.38;101362.84;4891428;29;19938;-80
2023/01/03 08:52:25;;;;;;;;;;;;;;;6.39;91.50;101366.69;4902414;29;19923;-79
2023/01/03 08:54:58;;;;;;;;;;;;;;;6.34;92.32;101370.47;4888055;29;20423;-79
2023/01/03 08:57:25;;;;;;;;;;;;;;;6.30;92.96;101373.22;4917723;29;20295;-80
2023/01/03 08:59:51;;;;;;;;;;;;;;;6.32;93.26;101373.19;4919067;29;19927;-79
2023/01/03 09:02:18;;;;;;;;;;;;;;;6.24;93.95;101373.53;4908106;29;19930;-79
2023/01/03 09:04:44;;;;;;;;;;;;;;;6.33;93.59;101387.22;4902354;29;20252;-80
2023/01/03 09:07:11;;;;;;;;;;;;;;;6.22;94.87;101380.66;4903245;29;20026;-79
2023/01/03 09:09:38;;;;;;;;;;;;;;;6.27;94.24;101381.28;4905127;29;19927;-79
2023/01/03 09:12:04;;;;;;;;;;;;;;;6.26;94.46;101387.50;4881699;29;19985;-80
2023/01/03 09:14:31;;;;;;;;;;;;;;;6.27;94.64;101385.72;4903443;29;19923;-79
2023/01/03 09:16:57;;;;;;;;;;;;;;;6.27;95.05;101388.34;4917623;29;19923;-80
2023/01/03 09:19:24;;;;;;;;;;;;;;;6.29;95.40;101387.38;4909074;29;20446;-80
2023/01/03 09:21:50;;;;;;;;;;;;;;;6.23;95.50;101398.22;4904252;29;20320;-79
2023/01/03 09:24:17;;;;;;;;;;;;;;;6.33;95.56;101393.34;4919793;29;19983;-80
2023/01/03 09:26:43;;;;;;;;;;;;;;;6.29;96.04;101397.06;4917884;29;20272;-79
2023/01/03 09:29:18;;;;;;;;;;;;;;;6.34;95.80;101400.34;4892574;29;19923;-80
2023/01/03 09:31:44;;;;;;;;;;;;;;;6.37;96.62;101396.72;4905472;29;20002;-79
2023/01/03 09:34:11;;;;;;;;;;;;;;;6.33;96.64;101393.34;4907728;29;20045;-79
2023/01/03 09:36:39;;;;;;;;;;;;;;;6.41;96.03;101393.00;4892280;29;19935;-80
2023/01/03 09:39:05;;;;;;;;;;;;;;;6.46;96.02;101397.16;4901427;29;19974;-79
2023/01/03 09:41:33;;;;;;;;;;;;;;;6.50;96.11;101395.22;4879979;29;19978;-79
2023/01/03 09:44:01;;;;;;;;;;;;;;;6.49;96.16;101390.88;4916526;29;19930;-79
2023/01/03 09:46:28;;;;;;;;;;;;;;;6.58;96.05;101386.94;4890190;29;20430;-79
2023/01/03 09:48:55;;;;;;;;;;;;;;;6.58;95.51;101400.13;4916999;29;19923;-79
2023/01/03 10:05:59;;;;;;;;;;;;;;;6.53;94.82;101395.06;4851547;29;20291;-79
2023/01/03 10:08:30;;;;;;;;;;;;;;;6.53;94.55;101390.63;4864788;29;20401;-79
2023/01/03 10:11:07;;;;;;;;;;;;;;;6.53;94.85;101387.16;4893652;29;19931;-79
2023/01/03 10:13:52;;;;;;;;;;;;;;;6.49;95.14;101397.00;4890885;29;19929;-79
2023/01/03 10:16:22;;;;;;;;;;;;;;;6.58;95.43;101394.84;4870168;29;19926;-79
2023/01/03 10:19:07;;;;;;;;;;;;;;;6.54;95.14;101386.25;4897712;29;20434;-80
2023/01/03 10:21:34;;;;;;;;;;;;;;;6.66;95.33;101383.00;4874021;29;19931;-81
2023/01/03 10:24:00;;;;;;;;;;;;;;;6.58;95.57;101384.28;4904464;29;19927;-79
2023/01/03 10:26:27;;;;;;;;;;;;;;;6.64;95.10;101384.00;4884424;29;19935;-78
2023/01/03 10:28:58;;;;;;;;;;;;;;;6.60;95.23;101391.22;4885935;29;19933;-79
2023/01/03 10:31:28;;;;;;;;;;;;;;;6.68;95.40;101386.44;4906322;29;19942;-80
2023/01/03 10:33:54;;;;;;;;;;;;;;;6.66;95.17;101385.63;4917280;29;20319;-80
2023/01/03 10:36:21;;;;;;;;;;;;;;;6.59;95.28;101381.59;4903808;29;19923;-80
2023/01/03 10:38:48;;;;;;;;;;;;;;;6.64;96.07;101382.25;4921144;29;20363;-79
2023/01/03 10:41:20;;;;;;;;;;;;;;;6.72;95.13;101384.50;4901871;29;19927;-80
2023/01/03 10:43:57;;;;;;;;;;;;;;;6.78;94.84;101378.94;4917696;29;19934;-79
2023/01/03 10:46:25;;;;;;;;;;;;;;;6.78;94.90;101376.28;4901918;29;19927;-79
2023/01/03 10:48:53;;;;;;;;;;;;;;;6.71;95.08;101373.06;4901312;29;20022;-78
2023/01/03 10:51:41;;;;;;;;;;;;;;;6.77;94.67;101376.34;4873824;29;20263;-79
2023/01/03 10:54:17;;;;;;;;;;;;;;;6.75;95.33;101373.81;4890706;29;20391;-80
2023/01/03 10:56:44;;;;;;;;;;;;;;;6.82;96.51;101376.97;4902750;29;19998;-79
2023/01/03 10:59:14;;;;;;;;;;;;;;;6.83;97.17;101376.06;4902951;29;19927;-79
2023/01/03 11:02:00;;;;;;;;;;;;;;;6.91;97.18;101372.13;4905481;29;19930;-79
2023/01/03 11:04:28;;;;;;;;;;;;;;;6.94;96.15;101371.97;4908737;29;20774;-79
2023/01/03 11:06:59;;;;;;;;;;;;;;;6.96;96.38;101374.53;4912889;29;19927;-78
2023/01/03 11:09:26;;;;;;;;;;;;;;;6.91;95.53;101366.84;4916858;29;19930;-79
2023/01/03 11:11:54;;;;;;;;;;;;;;;6.88;95.85;101372.28;4903955;29;19923;-79
2023/01/03 11:14:22;;;;;;;;;;;;;;;6.84;95.87;101372.50;4900296;29;19938;-80
2023/01/03 11:16:52;;;;;;;;;;;;;;;6.93;95.71;101370.25;4870627;29;19969;-79
2023/01/03 11:19:19;;;;;;;;;;;;;;;6.91;95.62;101374.75;4915763;29;19923;-79
2023/01/03 11:22:06;;;;;;;;;;;;;;;6.99;95.80;101366.47;4891430;29;19927;-78
2023/01/03 11:24:32;;;;;;;;;;;;;;;6.96;96.60;101356.91;4890553;29;19923;-80
2023/01/03 11:26:58;;;;;;;;;;;;;;;7.06;96.21;101365.25;4926688;29;20339;-78
2023/01/03 11:29:29;;;;;;;;;;;;;;;7.07;96.81;101364.31;4925520;28;19927;-79
2023/01/03 11:32:08;;;;;;;;;;;;;;;7.07;96.76;101364.31;4909589;29;20022;-79
2023/01/03 11:34:40;;;;;;;;;;;;;;;7.14;96.42;101364.84;4895376;29;19931;-81
2023/01/03 11:37:36;;;;;;;;;;;;;;;7.14;96.64;101362.22;4869334;29;19929;-80
2023/01/03 11:40:05;;;;;;;;;;;;;;;7.10;96.06;101364.16;4890347;29;19924;-80
2023/01/03 11:42:33;;;;;;;;;;;;;;;7.06;96.07;101354.66;4904830;29;19929;-79
2023/01/03 11:45:26;;;;;;;;;;;;;;;7.14;96.33;101346.38;4899934;29;19923;-79
2023/01/03 11:48:05;;;;;;;;;;;;;;;7.08;96.51;101351.97;4876008;29;19931;-79
2023/01/03 11:50:38;;;;;;;;;;;;;;;7.08;96.05;101347.53;4909769;29;20521;-79
2023/01/03 11:53:31;;;;;;;;;;;;;;;7.10;96.28;101344.81;4915660;29;19923;-79
2023/01/03 11:56:16;;;;;;;;;;;;;;;7.15;96.09;101346.31;4859390;29;19932;-79
2023/01/03 11:58:45;;;;;;;;;;;;;;;7.21;96.03;101334.56;4894053;29;19930;-79
2023/01/03 12:01:31;;;;;;;;;;;;;;;7.26;96.24;101337.84;4921290;28;19979;-78
2023/01/03 12:04:07;;;;;;;;;;;;;;;7.36;95.90;101338.22;4844341;29;20369;-78
2023/01/03 12:06:42;;;;;;;;;;;;;;;7.32;95.89;101332.22;4904671;29;20481;-77
2023/01/03 12:09:19;;;;;;;;;;;;;;;7.27;95.86;101336.03;4917501;29;19933;-78
2023/01/03 12:11:45;;;;;;;;;;;;;;;7.35;95.68;101325.94;4889763;29;20290;-77
2023/01/03 12:14:15;;;;;;;;;;;;;;;7.29;95.70;101324.47;4903523;29;20360;-78
2023/01/03 12:16:44;;;;;;;;;;;;;;;7.25;95.93;101324.69;4906642;29;19945;-78
2023/01/03 12:19:17;;;;;;;;;;;;;;;7.29;95.84;101319.16;4884200;29;19927;-78
2023/01/03 12:21:44;;;;;;;;;;;;;;;7.37;95.64;101319.63;4921878;29;20009;-78
2023/01/03 12:24:14;;;;;;;;;;;;;;;7.51;97.49;101318.09;4894173;29;20374;-78
2023/01/03 12:26:41;;;;;;;;;;;;;;;7.53;95.24;101316.19;4895112;29;19923;-78
2023/01/03 12:29:19;;;;;;;;;;;;;;;7.53;94.72;101309.16;4900913;29;19975;-79
2023/01/03 12:32:06;;;;;;;;;;;;;;;7.51;95.02;101311.00;4887944;29;19934;-78
2023/01/03 12:34:51;;;;;;;;;;;;;;;7.53;95.06;101309.16;4887150;29;19931;-78
2023/01/03 12:37:18;;;;;;;;;;;;;;;7.54;94.81;101310.00;4908594;29;19971;-78
2023/01/03 12:39:54;;;;;;;;;;;;;;;7.52;95.25;101310.06;4918829;29;19979;-78
2023/01/03 12:42:26;;;;;;;;;;;;;;;7.53;95.41;101305.63;4886055;29;19987;-79
2023/01/03 12:45:08;;;;;;;;;;;;;;;7.51;96.11;101294.28;4921217;29;19923;-78
2023/01/03 12:47:41;;;;;;;;;;;;;;;7.50;96.28;101300.50;4870558;29;20406;-78
2023/01/03 12:50:19;;;;;;;;;;;;;;;7.50;96.35;101303.16;4879926;29;20276;-78
2023/01/03 12:52:48;;;;;;;;;;;;;;;7.43;96.44;101299.09;4891602;29;19923;-78
2023/01/03 12:55:18;;;;;;;;;;;;;;;7.44;96.49;101292.91;4914621;29;19923;-78
2023/01/03 12:58:03;;;;;;;;;;;;;;;7.43;96.10;101294.69;4899979;29;19923;-78
2023/01/03 13:00:39;;;;;;;;;;;;;;;7.37;96.35;101290.56;4835909;29;19928;-78
2023/01/03 13:03:14;;;;;;;;;;;;;;;7.40;96.16;101278.97;4846000;29;19928;-78
2023/01/03 13:05:54;;;;;;;;;;;;;;;7.36;96.26;101280.94;4833623;29;19924;-78
2023/01/03 13:08:32;;;;;;;;;;;;;;;7.35;96.49;101283.66;4817528;29;20051;-78
2023/01/03 13:11:01;;;;;;;;;;;;;;;7.36;96.54;101288.03;4820692;29;19956;-78
2023/01/03 13:13:28;;;;;;;;;;;;;;;7.32;96.75;101283.81;4835620;29;20024;-78
2023/01/03 13:15:54;;;;;;;;;;;;;;;7.30;96.61;101275.09;4835146;29;20036;-79
2023/01/03 13:18:21;;;;;;;;;;;;;;;7.27;97.13;101277.91;4820503;29;20469;-78
2023/01/03 13:20:48;;;;;;;;;;;;;;;7.27;97.11;101273.47;4844061;29;19932;-79
2023/01/03 13:23:24;;;;;;;;;;;;;;;7.26;97.24;101274.41;4850223;29;19928;-79
2023/01/03 13:26:06;;;;;;;;;;;;;;;7.25;97.70;101277.13;4847489;29;19925;-78
2023/01/03 13:28:33;;;;;;;;;;;;;;;7.28;97.69;101262.00;4823493;29;19928;-78
2023/01/03 13:31:12;;;;;;;;;;;;;;;7.34;97.14;101272.22;4857855;29;19922;-78
2023/01/03 13:33:50;;;;;;;;;;;;;;;7.32;97.33;101278.53;4905362;29;19931;-79
2023/01/03 13:36:17;;;;;;;;;;;;;;;7.35;97.42;101270.44;4915492;29;20376;-79
2023/01/03 13:38:43;;;;;;;;;;;;;;;7.40;97.35;101271.03;4905612;29;19979;-78
2023/01/03 13:41:30;;;;;;;;;;;;;;;7.42;96.91;101261.25;4890487;29;19927;-78
2023/01/03 13:44:05;;;;;;;;;;;;;;;7.36;97.39;101259.78;4880035;29;19946;-80
2023/01/03 13:46:32;;;;;;;;;;;;;;;7.43;96.90;101265.63;4906722;29;20000;-78
2023/01/03 13:49:03;;;;;;;;;;;;;;;7.43;97.45;101264.75;4890944;29;19927;-79
2023/01/03 13:51:29;;;;;;;;;;;;;;;7.42;97.49;101261.25;4903056;29;20017;-77
2023/01/03 13:53:57;;;;;;;;;;;;;;;7.38;97.98;101265.00;4909123;29;19923;-78
2023/01/03 13:56:25;;;;;;;;;;;;;;;7.43;97.70;101265.63;4919451;29;19967;-78
2023/01/03 13:58:53;;;;;;;;;;;;;;;7.46;97.56;101265.47;4915479;29;20268;-78